createdAt,value
2019-06-20T00:00:40.454Z,17.94
2019-06-20T00:01:40.425Z,17.91
2019-06-20T00:02:40.406Z,18.01
2019-06-20T00:03:40.556Z,17.86
2019-06-20T00:04:40.401Z,17.84
2019-06-20T00:05:40.723Z,17.91
2019-06-20T00:06:40.377Z,17.91
2019-06-20T00:07:40.386Z,17.92
2019-06-20T00:08:40.449Z,17.83
2019-06-20T00:09:40.505Z,17.87
2019-06-20T00:10:40.470Z,17.84
2019-06-20T00:11:40.340Z,17.79
2019-06-20T00:12:40.325Z,17.79
2019-06-20T00:13:40.288Z,17.79
2019-06-20T00:14:40.275Z,17.83
2019-06-20T00:15:40.265Z,17.76
2019-06-20T00:16:40.292Z,17.73
2019-06-20T00:17:40.243Z,17.79
2019-06-20T00:18:40.230Z,17.79
2019-06-20T00:19:40.228Z,17.77
2019-06-20T00:20:40.218Z,17.76
2019-06-20T00:21:40.228Z,17.77
2019-06-20T00:22:40.200Z,17.79
2019-06-20T00:23:40.177Z,17.77
2019-06-20T00:24:40.182Z,17.77
2019-06-20T00:25:40.171Z,17.76
2019-06-20T00:26:40.183Z,17.80
2019-06-20T00:27:40.130Z,17.73
2019-06-20T00:28:40.126Z,17.84
2019-06-20T00:29:40.109Z,17.81
2019-06-20T00:30:40.104Z,17.81
2019-06-20T00:31:40.092Z,17.80
2019-06-20T00:32:40.109Z,17.79
2019-06-20T00:33:40.070Z,17.80
2019-06-20T00:34:40.069Z,17.79
2019-06-20T00:35:40.047Z,17.81
2019-06-20T00:36:40.047Z,17.81
2019-06-20T00:37:40.060Z,17.76
2019-06-20T00:38:40.055Z,17.77
2019-06-20T00:39:40.004Z,17.77
2019-06-20T00:40:39.987Z,17.76
2019-06-20T00:41:39.983Z,17.76
2019-06-20T00:42:40.003Z,17.73
2019-06-20T00:43:39.964Z,17.76
2019-06-20T00:44:39.979Z,17.79
2019-06-20T00:45:39.943Z,17.74
2019-06-20T00:46:39.930Z,17.77
2019-06-20T00:47:39.929Z,17.77
2019-06-20T00:48:39.929Z,17.83
2019-06-20T00:49:39.890Z,17.77
2019-06-20T00:50:39.940Z,17.79
2019-06-20T00:51:39.869Z,17.80
2019-06-20T00:52:39.895Z,17.77
2019-06-20T00:53:39.884Z,17.73
2019-06-20T00:54:39.841Z,17.76
2019-06-20T00:55:39.830Z,17.79
2019-06-20T00:56:39.829Z,17.86
2019-06-20T00:57:39.813Z,17.81
2019-06-20T00:58:39.853Z,17.87
2019-06-20T00:59:39.785Z,17.94
2019-06-20T01:00:39.808Z,17.95
2019-06-20T01:01:39.757Z,17.86
2019-06-20T01:02:39.744Z,17.94
2019-06-20T01:03:39.746Z,17.91
2019-06-20T01:04:39.766Z,17.89
2019-06-20T01:05:39.719Z,17.89
2019-06-20T01:06:39.710Z,18.01
2019-06-20T01:07:39.704Z,17.95
2019-06-20T01:08:39.688Z,17.98
2019-06-20T01:09:39.716Z,18.01
2019-06-20T01:10:39.664Z,17.98
2019-06-20T01:11:39.661Z,18.01
2019-06-20T01:12:39.680Z,18.01
2019-06-20T01:13:39.632Z,18.01
2019-06-20T01:14:39.656Z,17.98
2019-06-20T01:15:39.610Z,18.13
2019-06-20T01:16:39.592Z,18.09
2019-06-20T01:17:39.607Z,18.11
2019-06-20T01:18:39.579Z,18.13
2019-06-20T01:19:39.707Z,18.09
2019-06-20T01:20:39.553Z,18.13
2019-06-20T01:21:39.571Z,18.01
2019-06-20T01:22:39.531Z,18.13
2019-06-20T01:23:39.516Z,18.11
2019-06-20T01:24:39.547Z,18.01
2019-06-20T01:25:39.530Z,18.07
2019-06-20T01:26:39.481Z,17.99
2019-06-20T01:27:39.473Z,18.02
2019-06-20T01:28:39.461Z,18.10
2019-06-20T01:29:39.451Z,18.02
2019-06-20T01:30:39.480Z,18.16
2019-06-20T01:31:39.427Z,18.13
2019-06-20T01:32:39.418Z,18.14
2019-06-20T01:33:39.403Z,18.17
2019-06-20T01:34:39.414Z,18.09
2019-06-20T01:35:39.554Z,18.14
2019-06-20T01:36:39.424Z,18.17
2019-06-20T01:37:39.362Z,18.19
2019-06-20T01:38:39.364Z,18.14
2019-06-20T01:39:39.342Z,18.21
2019-06-20T01:40:39.332Z,18.14
2019-06-20T01:41:39.353Z,18.20
2019-06-20T01:42:39.323Z,18.16
2019-06-20T01:43:49.926Z,18.17
2019-06-20T01:44:40.283Z,18.17
2019-06-20T01:45:39.367Z,18.19
2019-06-20T01:46:39.293Z,18.20
2019-06-20T01:47:39.260Z,18.25
2019-06-20T01:48:39.255Z,18.23
2019-06-20T01:49:39.228Z,18.14
2019-06-20T01:50:39.221Z,18.26
2019-06-20T01:51:39.242Z,18.21
2019-06-20T01:52:39.209Z,18.25
2019-06-20T01:53:39.213Z,18.19
2019-06-20T01:54:39.207Z,18.17
2019-06-20T01:55:39.167Z,18.14
2019-06-20T01:56:39.157Z,18.19
2019-06-20T01:57:39.144Z,18.14
2019-06-20T01:58:39.173Z,18.16
2019-06-20T01:59:39.156Z,18.20
2019-06-20T02:00:39.142Z,18.11
2019-06-20T02:01:39.158Z,18.14
2019-06-20T02:02:39.108Z,18.11
2019-06-20T02:03:39.078Z,18.13
2019-06-20T02:04:39.077Z,18.07
2019-06-20T02:05:39.062Z,18.05
2019-06-20T02:06:39.050Z,18.09
2019-06-20T02:07:39.067Z,18.11
2019-06-20T02:08:39.023Z,18.01
2019-06-20T02:09:39.022Z,18.02
2019-06-20T02:10:39.005Z,18.02
2019-06-20T02:11:39.022Z,17.95
2019-06-20T02:12:39.013Z,18.09
2019-06-20T02:13:38.973Z,18.01
2019-06-20T02:14:38.959Z,18.01
2019-06-20T02:15:38.946Z,17.98
2019-06-20T02:16:38.935Z,18.10
2019-06-20T02:17:38.949Z,18.01
2019-06-20T02:18:38.908Z,17.95
2019-06-20T02:19:38.912Z,17.96
2019-06-20T02:20:38.898Z,17.95
2019-06-20T02:21:38.882Z,18.01
2019-06-20T02:22:38.944Z,18.04
2019-06-20T02:23:38.928Z,17.98
2019-06-20T02:24:38.855Z,17.92
2019-06-20T02:25:38.839Z,17.87
2019-06-20T02:26:38.823Z,17.86
2019-06-20T02:27:38.814Z,17.83
2019-06-20T02:28:38.809Z,17.95
2019-06-20T02:29:38.826Z,17.89
2019-06-20T02:30:38.783Z,17.74
2019-06-20T02:31:38.775Z,17.79
2019-06-20T02:32:38.765Z,17.81
2019-06-20T02:33:38.771Z,17.77
2019-06-20T02:34:38.731Z,17.77
2019-06-20T02:35:38.727Z,17.77
2019-06-20T02:36:38.707Z,17.73
2019-06-20T02:37:38.707Z,17.66
2019-06-20T02:38:38.725Z,17.63
2019-06-20T02:39:38.775Z,17.57
2019-06-20T02:40:38.664Z,17.54
2019-06-20T02:41:38.667Z,17.65
2019-06-20T02:42:38.651Z,17.53
2019-06-20T02:43:38.640Z,17.57
2019-06-20T02:44:38.623Z,17.60
2019-06-20T02:45:38.640Z,17.54
2019-06-20T02:46:38.601Z,17.47
2019-06-20T02:47:38.597Z,17.47
2019-06-20T02:48:38.578Z,17.49
2019-06-20T02:49:38.579Z,17.49
2019-06-20T02:50:38.598Z,17.54
2019-06-20T02:51:38.543Z,17.51
2019-06-20T02:52:38.531Z,17.51
2019-06-20T02:53:38.521Z,17.57
2019-06-20T02:54:38.532Z,17.55
2019-06-20T02:55:38.528Z,17.47
2019-06-20T02:56:38.496Z,17.46
2019-06-20T02:57:38.481Z,17.49
2019-06-20T02:58:38.468Z,17.53
2019-06-20T02:59:38.454Z,17.39
2019-06-20T03:00:38.488Z,17.40
2019-06-20T03:01:38.439Z,17.33
2019-06-20T03:02:38.425Z,17.38
2019-06-20T03:03:38.419Z,17.39
2019-06-20T03:04:38.409Z,17.35
2019-06-20T03:05:38.398Z,17.30
2019-06-20T03:06:38.433Z,17.32
2019-06-20T03:07:38.391Z,17.28
2019-06-20T03:08:38.360Z,17.17
2019-06-20T03:09:38.349Z,17.14
2019-06-20T03:10:38.347Z,17.14
2019-06-20T03:11:38.330Z,17.12
2019-06-20T03:12:38.341Z,17.06
2019-06-20T03:13:38.307Z,17.07
2019-06-20T03:14:45.531Z,17.06
2019-06-20T03:15:39.281Z,16.96
2019-06-20T03:16:38.320Z,16.92
2019-06-20T03:17:38.268Z,16.85
2019-06-20T03:18:38.244Z,16.82
2019-06-20T03:19:38.242Z,16.88
2019-06-20T03:20:38.225Z,16.72
2019-06-20T03:21:38.249Z,16.78
2019-06-20T03:22:38.242Z,16.81
2019-06-20T03:23:38.196Z,16.63
2019-06-20T03:24:38.194Z,16.78
2019-06-20T03:25:38.181Z,16.72
2019-06-20T03:26:38.163Z,16.66
2019-06-20T03:27:38.148Z,16.70
2019-06-20T03:28:38.168Z,16.65
2019-06-20T03:29:38.138Z,16.66
2019-06-20T03:30:38.130Z,16.63
2019-06-20T03:31:38.109Z,16.66
2019-06-20T03:32:38.096Z,16.60
2019-06-20T03:33:38.116Z,16.62
2019-06-20T03:34:38.073Z,16.63
2019-06-20T03:35:38.060Z,16.63
2019-06-20T03:36:38.050Z,16.63
2019-06-20T03:37:38.072Z,16.62
2019-06-20T03:38:38.067Z,16.63
2019-06-20T03:39:38.024Z,16.57
2019-06-20T03:40:38.013Z,16.54
2019-06-20T03:41:37.997Z,16.55
2019-06-20T03:42:38.054Z,16.57
2019-06-20T03:43:38.015Z,16.59
2019-06-20T03:44:37.958Z,16.59
2019-06-20T03:45:37.949Z,16.59
2019-06-20T03:46:37.937Z,16.51
2019-06-20T03:47:37.933Z,16.54
2019-06-20T03:48:37.987Z,16.51
2019-06-20T03:49:37.915Z,16.57
2019-06-20T03:50:37.896Z,16.60
2019-06-20T03:51:37.895Z,16.52
2019-06-20T03:52:37.887Z,16.52
2019-06-20T03:53:37.864Z,16.54
2019-06-20T03:54:37.878Z,16.60
2019-06-20T03:55:37.846Z,16.57
2019-06-20T03:56:37.835Z,16.55
2019-06-20T03:57:37.820Z,16.63
2019-06-20T03:58:37.929Z,16.62
2019-06-20T03:59:37.802Z,16.63
2019-06-20T04:00:37.790Z,16.67
2019-06-20T04:01:37.783Z,16.63
2019-06-20T04:02:37.769Z,16.65
2019-06-20T04:03:37.758Z,16.67
2019-06-20T04:04:37.769Z,16.80
2019-06-20T04:05:37.732Z,16.73
2019-06-20T04:06:37.741Z,16.75
2019-06-20T04:07:37.754Z,16.73
2019-06-20T04:08:37.705Z,16.78
2019-06-20T04:09:37.733Z,16.67
2019-06-20T04:10:37.679Z,16.78
2019-06-20T04:11:37.669Z,16.81
2019-06-20T04:12:37.681Z,16.75
2019-06-20T04:13:37.676Z,16.82
2019-06-20T04:14:37.629Z,16.92
2019-06-20T04:15:37.663Z,16.91
2019-06-20T04:16:37.620Z,17.00
2019-06-20T04:17:37.601Z,16.99
2019-06-20T04:18:37.597Z,17.03
2019-06-20T04:19:37.596Z,17.05
2019-06-20T04:20:37.567Z,17.09
2019-06-20T04:21:37.583Z,17.07
2019-06-20T04:22:37.554Z,17.14
2019-06-20T04:23:37.546Z,17.14
2019-06-20T04:24:37.519Z,17.25
2019-06-20T04:25:37.549Z,17.22
2019-06-20T04:26:37.497Z,17.30
2019-06-20T04:27:37.488Z,17.35
2019-06-20T04:28:37.479Z,17.33
2019-06-20T04:29:37.466Z,17.32
2019-06-20T04:30:37.501Z,17.35
2019-06-20T04:31:37.445Z,17.38
2019-06-20T04:32:37.458Z,17.42
2019-06-20T04:33:37.426Z,17.33
2019-06-20T04:34:37.412Z,17.39
2019-06-20T04:35:37.433Z,17.42
2019-06-20T04:36:37.408Z,17.51
2019-06-20T04:37:37.375Z,17.49
2019-06-20T04:38:37.402Z,17.46
2019-06-20T04:39:37.360Z,17.49
2019-06-20T04:40:37.350Z,17.53
2019-06-20T04:41:37.337Z,17.62
2019-06-20T04:42:37.350Z,17.55
2019-06-20T04:43:37.325Z,17.63
2019-06-20T04:44:37.305Z,17.66
2019-06-20T04:45:37.311Z,17.62
2019-06-20T04:46:37.279Z,17.55
2019-06-20T04:47:37.295Z,17.55
2019-06-20T04:48:37.295Z,17.60
2019-06-20T04:49:37.247Z,17.66
2019-06-20T04:50:37.232Z,17.76
2019-06-20T04:51:37.225Z,17.76
2019-06-20T04:52:37.264Z,17.77
2019-06-20T04:53:37.198Z,17.79
2019-06-20T04:54:37.186Z,17.80
2019-06-20T04:55:37.181Z,17.96
2019-06-20T04:56:37.173Z,17.96
2019-06-20T04:57:37.156Z,17.99
2019-06-20T04:58:37.203Z,18.04
2019-06-20T04:59:37.131Z,18.14
2019-06-20T05:00:37.131Z,18.25
2019-06-20T05:01:37.119Z,18.32
2019-06-20T05:02:37.144Z,18.34
2019-06-20T05:03:37.109Z,18.38
2019-06-20T05:04:37.108Z,18.42
2019-06-20T05:05:37.081Z,18.50
2019-06-20T05:06:37.055Z,18.51
2019-06-20T05:07:37.048Z,18.53
2019-06-20T05:08:37.075Z,18.57
2019-06-20T05:09:37.035Z,18.66
2019-06-20T05:10:37.049Z,18.71
2019-06-20T05:11:37.003Z,18.68
2019-06-20T05:12:37.003Z,18.78
2019-06-20T05:13:36.984Z,18.89
2019-06-20T05:14:37.024Z,18.93
2019-06-20T05:15:51.609Z,18.94
2019-06-20T05:16:37.960Z,19.09
2019-06-20T05:17:36.947Z,19.13
2019-06-20T05:18:36.929Z,19.16
2019-06-20T05:19:36.947Z,19.25
2019-06-20T05:20:36.938Z,19.27
2019-06-20T05:21:36.894Z,19.34
2019-06-20T05:22:41.182Z,19.27
2019-06-20T05:23:36.879Z,19.27
2019-06-20T05:24:36.893Z,19.35
2019-06-20T05:25:36.884Z,19.31
2019-06-20T05:26:36.859Z,19.34
2019-06-20T05:27:36.845Z,19.24
2019-06-20T05:28:36.816Z,19.31
2019-06-20T05:29:36.821Z,19.30
2019-06-20T05:30:36.849Z,19.25
2019-06-20T05:31:36.893Z,19.20
2019-06-20T05:32:36.784Z,19.25
2019-06-20T05:33:36.787Z,19.13
2019-06-20T05:34:36.830Z,19.17
2019-06-20T05:35:36.741Z,19.20
2019-06-20T05:36:36.735Z,19.06
2019-06-20T05:37:36.749Z,19.13
2019-06-20T05:38:36.712Z,19.13
2019-06-20T05:39:36.707Z,19.16
2019-06-20T05:40:37.311Z,19.17
2019-06-20T05:41:36.713Z,19.13
2019-06-20T05:42:36.673Z,19.16
2019-06-20T05:43:36.665Z,19.13
2019-06-20T05:44:36.668Z,19.15
2019-06-20T05:45:36.637Z,19.10
2019-06-20T05:46:36.654Z,19.16
2019-06-20T05:47:36.660Z,19.10
2019-06-20T05:48:36.630Z,19.09
2019-06-20T05:49:37.122Z,19.09
2019-06-20T05:50:36.586Z,19.20
2019-06-20T05:51:39.660Z,19.20
2019-06-20T05:52:36.610Z,19.13
2019-06-20T05:53:36.567Z,19.27
2019-06-20T05:54:36.534Z,19.31
2019-06-20T05:55:36.524Z,19.39
2019-06-20T05:56:36.526Z,19.31
2019-06-20T05:57:36.518Z,19.49
2019-06-20T05:58:36.520Z,19.53
2019-06-20T05:59:36.481Z,19.53
2019-06-20T06:00:36.470Z,19.58
2019-06-20T06:01:36.461Z,19.60
2019-06-20T06:02:36.446Z,19.70
2019-06-20T06:03:36.486Z,19.71
2019-06-20T06:04:36.433Z,19.80
2019-06-20T06:05:37.168Z,19.82
2019-06-20T06:06:36.403Z,19.79
2019-06-20T06:07:36.485Z,20.00
2019-06-20T06:08:36.713Z,19.87
2019-06-20T06:09:36.375Z,19.86
2019-06-20T06:10:36.377Z,19.97
2019-06-20T06:11:36.351Z,20.04
2019-06-20T06:12:36.416Z,20.07
2019-06-20T06:13:36.381Z,20.05
2019-06-20T06:14:36.320Z,20.19
2019-06-20T06:15:36.313Z,20.19
2019-06-20T06:16:36.299Z,20.30
2019-06-20T06:17:36.290Z,20.40
2019-06-20T06:18:36.350Z,20.42
2019-06-20T06:19:36.292Z,20.60
2019-06-20T06:20:36.259Z,20.61
2019-06-20T06:21:36.244Z,20.60
2019-06-20T06:22:36.272Z,20.63
2019-06-20T06:23:36.222Z,20.63
2019-06-20T06:24:36.239Z,20.75
2019-06-20T06:25:36.241Z,20.91
2019-06-20T06:26:36.195Z,20.96
2019-06-20T06:27:36.288Z,20.98
2019-06-20T06:28:36.178Z,21.00
2019-06-20T06:29:36.221Z,21.03
2019-06-20T06:30:36.155Z,21.08
2019-06-20T06:31:36.138Z,20.98
2019-06-20T06:32:40.193Z,20.96
2019-06-20T06:33:36.120Z,20.91
2019-06-20T06:34:36.105Z,20.97
2019-06-20T06:35:36.123Z,20.97
2019-06-20T06:36:36.147Z,20.96
2019-06-20T06:37:36.071Z,20.98
2019-06-20T06:38:36.066Z,21.00
2019-06-20T06:39:36.048Z,21.11
2019-06-20T06:40:36.074Z,21.03
2019-06-20T06:41:36.035Z,21.06
2019-06-20T06:42:36.024Z,20.87
2019-06-20T06:43:41.593Z,20.79
2019-06-20T06:44:37.007Z,20.78
2019-06-20T06:45:36.033Z,20.87
2019-06-20T06:46:44.815Z,20.94
2019-06-20T06:47:36.997Z,20.98
2019-06-20T06:48:35.969Z,21.03
2019-06-20T06:49:35.944Z,21.21
2019-06-20T06:50:36.037Z,21.26
2019-06-20T06:51:38.147Z,21.48
2019-06-20T06:52:35.922Z,21.74
2019-06-20T06:53:35.907Z,22.02
2019-06-20T06:54:35.890Z,22.19
2019-06-20T06:55:35.884Z,22.23
2019-06-20T06:56:35.908Z,22.39
2019-06-20T06:57:35.874Z,22.54
2019-06-20T06:58:35.855Z,22.70
2019-06-20T06:59:35.847Z,22.84
2019-06-20T07:00:35.829Z,23.06
2019-06-20T07:01:35.815Z,23.01
2019-06-20T07:02:35.839Z,23.12
2019-06-20T07:03:35.801Z,22.97
2019-06-20T07:04:35.778Z,22.89
2019-06-20T07:05:35.806Z,22.76
2019-06-20T07:06:35.780Z,22.46
2019-06-20T07:07:35.757Z,22.35
2019-06-20T07:08:35.775Z,22.36
2019-06-20T07:09:35.732Z,22.12
2019-06-20T07:10:35.733Z,22.19
2019-06-20T07:11:35.762Z,21.93
2019-06-20T07:12:35.700Z,22.04
2019-06-20T07:13:35.729Z,22.11
2019-06-20T07:14:35.698Z,22.19
2019-06-20T07:15:35.663Z,22.23
2019-06-20T07:16:35.652Z,22.27
2019-06-20T07:17:35.647Z,22.46
2019-06-20T07:18:35.669Z,22.69
2019-06-20T07:19:35.618Z,22.88
2019-06-20T07:20:35.635Z,23.06
2019-06-20T07:21:35.600Z,23.09
2019-06-20T07:22:35.585Z,23.18
2019-06-20T07:23:35.638Z,23.29
2019-06-20T07:24:35.800Z,23.29
2019-06-20T07:25:35.576Z,23.06
2019-06-20T07:26:35.581Z,22.93
2019-06-20T07:27:35.586Z,23.01
2019-06-20T07:28:35.530Z,23.04
2019-06-20T07:29:35.514Z,23.18
2019-06-20T07:30:35.580Z,23.19
2019-06-20T07:31:35.510Z,23.34
2019-06-20T07:32:35.532Z,23.35
2019-06-20T07:33:35.477Z,23.22
2019-06-20T07:34:35.480Z,23.11
2019-06-20T07:35:35.457Z,23.11
2019-06-20T07:36:35.442Z,23.25
2019-06-20T07:37:35.445Z,23.59
2019-06-20T07:38:35.456Z,23.92
2019-06-20T07:39:35.409Z,23.67
2019-06-20T07:40:35.396Z,24.14
2019-06-20T07:41:35.493Z,24.12
2019-06-20T07:42:35.393Z,23.52
2019-06-20T07:43:35.453Z,23.21
2019-06-20T07:44:35.357Z,22.86
2019-06-20T07:45:35.360Z,22.81
2019-06-20T07:46:35.327Z,22.82
2019-06-20T07:47:35.332Z,22.70
2019-06-20T07:48:35.320Z,22.54
2019-06-20T07:49:35.370Z,22.48
2019-06-20T07:50:38.479Z,22.42
2019-06-20T07:51:35.283Z,22.67
2019-06-20T07:52:35.274Z,22.61
2019-06-20T07:53:35.256Z,22.99
2019-06-20T07:54:35.255Z,23.25
2019-06-20T07:55:35.286Z,23.32
2019-06-20T07:56:35.231Z,23.29
2019-06-20T07:57:35.219Z,23.45
2019-06-20T07:58:35.229Z,24.16
2019-06-20T07:59:35.240Z,24.71
2019-06-20T08:00:35.209Z,25.31
2019-06-20T08:01:35.194Z,25.38
2019-06-20T08:02:35.167Z,24.86
2019-06-20T08:03:35.168Z,24.46
2019-06-20T08:04:35.191Z,24.52
2019-06-20T08:05:35.166Z,25.59
2019-06-20T08:06:35.119Z,25.75
2019-06-20T08:07:35.138Z,26.12
2019-06-20T08:08:35.106Z,27.03
2019-06-20T08:09:44.711Z,27.20
2019-06-20T08:10:36.128Z,26.72
2019-06-20T08:11:35.082Z,26.75
2019-06-20T08:12:35.073Z,26.84
2019-06-20T08:13:35.036Z,26.96
2019-06-20T08:14:35.029Z,26.93
2019-06-20T08:15:35.060Z,26.79
2019-06-20T08:16:35.014Z,26.51
2019-06-20T08:17:35.862Z,26.71
2019-06-20T08:18:35.029Z,26.90
2019-06-20T08:19:35.010Z,26.87
2019-06-20T08:20:35.013Z,26.61
2019-06-20T08:21:35.007Z,26.46
2019-06-20T08:22:34.949Z,26.57
2019-06-20T08:23:34.931Z,26.23
2019-06-20T08:24:35.053Z,26.19
2019-06-20T08:25:34.915Z,26.41
2019-06-20T08:26:34.953Z,26.53
2019-06-20T08:27:34.971Z,26.42
2019-06-20T08:28:34.883Z,26.34
2019-06-20T08:29:34.888Z,26.00
2019-06-20T08:30:34.878Z,26.32
2019-06-20T08:31:34.848Z,26.56
2019-06-20T08:32:34.897Z,27.20
2019-06-20T08:33:34.933Z,27.62
2019-06-20T08:34:35.179Z,28.03
2019-06-20T08:35:35.020Z,28.25
2019-06-20T08:36:35.007Z,28.61
2019-06-20T08:37:34.865Z,29.08
2019-06-20T08:38:34.823Z,29.36
2019-06-20T08:39:34.780Z,29.89
2019-06-20T08:40:34.789Z,30.23
2019-06-20T08:41:34.748Z,30.46
2019-06-20T08:42:34.782Z,30.81
2019-06-20T08:43:34.732Z,30.90
2019-06-20T08:44:34.723Z,30.82
2019-06-20T08:45:34.746Z,30.36
2019-06-20T08:46:34.697Z,30.13
2019-06-20T08:47:34.723Z,29.71
2019-06-20T08:48:34.788Z,29.74
2019-06-20T08:49:34.667Z,29.88
2019-06-20T08:50:34.661Z,29.91
2019-06-20T08:51:34.643Z,30.04
2019-06-20T08:52:34.685Z,30.37
2019-06-20T08:53:34.687Z,30.18
2019-06-20T08:54:34.615Z,29.71
2019-06-20T08:55:34.607Z,29.89
2019-06-20T08:56:34.614Z,29.52
2019-06-20T08:57:34.585Z,29.29
2019-06-20T08:58:34.575Z,29.29
2019-06-20T08:59:34.592Z,29.27
2019-06-20T09:00:34.563Z,29.23
2019-06-20T09:01:34.553Z,29.07
2019-06-20T09:02:34.545Z,29.21
2019-06-20T09:03:34.537Z,28.65
2019-06-20T09:04:34.574Z,28.52
2019-06-20T09:05:34.506Z,27.95
2019-06-20T09:06:34.503Z,27.65
2019-06-20T09:07:34.486Z,27.98
2019-06-20T09:08:34.477Z,28.45
2019-06-20T09:09:34.461Z,28.62
2019-06-20T09:10:34.492Z,29.00
2019-06-20T09:11:34.446Z,29.33
2019-06-20T09:12:34.439Z,29.36
2019-06-20T09:13:34.455Z,29.51
2019-06-20T09:14:34.416Z,29.49
2019-06-20T09:15:34.444Z,29.73
2019-06-20T09:16:34.400Z,30.11
2019-06-20T09:17:34.396Z,30.67
2019-06-20T09:18:34.381Z,30.81
2019-06-20T09:19:34.364Z,30.94
2019-06-20T09:20:34.385Z,31.15
2019-06-20T09:21:34.349Z,31.22
2019-06-20T09:22:34.330Z,31.10
2019-06-20T09:23:35.742Z,30.88
2019-06-20T09:24:34.330Z,31.07
2019-06-20T09:25:34.360Z,31.00
2019-06-20T09:26:34.319Z,31.47
2019-06-20T09:27:34.290Z,31.64
2019-06-20T09:28:34.289Z,31.54
2019-06-20T09:29:41.606Z,31.19
2019-06-20T09:30:35.292Z,31.28
2019-06-20T09:31:34.260Z,31.15
2019-06-20T09:32:34.240Z,31.15
2019-06-20T09:33:34.248Z,31.45
2019-06-20T09:34:34.254Z,31.46
2019-06-20T09:35:34.219Z,31.30
2019-06-20T09:36:34.225Z,31.15
2019-06-20T09:37:34.196Z,31.53
2019-06-20T09:38:34.182Z,32.03
2019-06-20T09:39:34.225Z,32.56
2019-06-20T09:40:34.173Z,32.51
2019-06-20T09:41:34.196Z,32.16
2019-06-20T09:42:36.841Z,31.27
2019-06-20T09:43:34.139Z,31.82
2019-06-20T09:44:34.135Z,32.29
2019-06-20T09:45:34.116Z,32.66
2019-06-20T09:46:34.142Z,32.03
2019-06-20T09:47:34.097Z,31.53
2019-06-20T09:48:34.117Z,31.46
2019-06-20T09:49:34.085Z,31.40
2019-06-20T09:50:34.115Z,30.63
2019-06-20T09:51:34.092Z,29.23
2019-06-20T09:52:34.067Z,29.88
2019-06-20T09:53:34.054Z,31.03
2019-06-20T09:54:34.039Z,31.64
2019-06-20T09:55:34.049Z,32.43
2019-06-20T09:56:34.078Z,33.28
2019-06-20T09:57:34.010Z,33.34
2019-06-20T09:58:33.987Z,32.19
2019-06-20T09:59:33.995Z,32.21
2019-06-20T10:00:33.979Z,32.53
2019-06-20T10:01:33.964Z,32.95
2019-06-20T10:02:34.022Z,33.38
2019-06-20T10:03:33.943Z,34.16
2019-06-20T10:04:33.945Z,34.46
2019-06-20T10:05:33.930Z,34.75
2019-06-20T10:06:33.927Z,34.05
2019-06-20T10:07:33.948Z,33.53
2019-06-20T10:08:33.974Z,33.94
2019-06-20T10:09:33.893Z,33.94
2019-06-20T10:10:33.879Z,33.35
2019-06-20T10:11:33.872Z,32.46
2019-06-20T10:12:33.910Z,31.74
2019-06-20T10:13:33.847Z,31.01
2019-06-20T10:14:33.846Z,30.66
2019-06-20T10:15:33.831Z,30.36
2019-06-20T10:16:45.394Z,30.26
2019-06-20T10:17:34.876Z,30.38
2019-06-20T10:18:33.805Z,30.49
2019-06-20T10:19:33.794Z,30.15
2019-06-20T10:20:33.780Z,29.30
2019-06-20T10:21:33.778Z,28.95
2019-06-20T10:22:33.758Z,28.79
2019-06-20T10:23:33.792Z,28.54
2019-06-20T10:24:33.735Z,28.09
2019-06-20T10:25:33.725Z,27.96
2019-06-20T10:26:37.394Z,27.80
2019-06-20T10:27:33.713Z,27.68
2019-06-20T10:28:33.708Z,27.65
2019-06-20T10:29:33.749Z,27.61
2019-06-20T10:30:33.682Z,27.62
2019-06-20T10:31:33.664Z,27.62
2019-06-20T10:32:33.655Z,27.52
2019-06-20T10:33:33.646Z,27.30
2019-06-20T10:34:33.632Z,27.20
2019-06-20T10:35:33.686Z,27.08
2019-06-20T10:36:33.629Z,27.24
2019-06-20T10:37:33.620Z,27.02
2019-06-20T10:38:33.620Z,27.06
2019-06-20T10:39:33.620Z,27.15
2019-06-20T10:40:33.573Z,27.13
2019-06-20T10:41:33.558Z,26.91
2019-06-20T10:42:33.553Z,26.84
2019-06-20T10:43:33.544Z,26.75
2019-06-20T10:44:33.533Z,26.79
2019-06-20T10:45:33.557Z,26.60
2019-06-20T10:46:33.510Z,26.59
2019-06-20T10:47:36.020Z,26.46
2019-06-20T10:48:33.494Z,26.51
2019-06-20T10:49:33.481Z,26.57
2019-06-20T10:50:33.503Z,26.65
2019-06-20T10:51:33.459Z,26.75
2019-06-20T10:52:33.443Z,27.16
2019-06-20T10:53:33.432Z,27.23
2019-06-20T10:54:33.426Z,27.21
2019-06-20T10:55:33.446Z,27.13
2019-06-20T10:56:33.406Z,27.11
2019-06-20T10:57:33.404Z,26.75
2019-06-20T10:58:33.384Z,26.64
2019-06-20T10:59:33.372Z,26.84
2019-06-20T11:00:33.391Z,26.56
2019-06-20T11:01:33.412Z,26.34
2019-06-20T11:02:33.366Z,26.34
2019-06-20T11:03:33.607Z,26.08
2019-06-20T11:04:33.323Z,26.09
2019-06-20T11:05:33.317Z,26.42
2019-06-20T11:06:33.310Z,26.54
2019-06-20T11:07:33.323Z,26.75
2019-06-20T11:08:33.291Z,26.90
2019-06-20T11:09:33.396Z,26.81
2019-06-20T11:10:33.258Z,26.66
2019-06-20T11:11:33.969Z,26.86
2019-06-20T11:12:42.860Z,27.48
2019-06-20T11:13:34.239Z,27.49
2019-06-20T11:14:33.540Z,27.52
2019-06-20T11:15:33.208Z,27.59
2019-06-20T11:16:33.246Z,27.46
2019-06-20T11:17:33.181Z,27.24
2019-06-20T11:18:33.174Z,27.06
2019-06-20T11:19:33.159Z,26.91
2019-06-20T11:20:33.150Z,26.98
2019-06-20T11:21:33.140Z,26.91
2019-06-20T11:22:33.167Z,26.64
2019-06-20T11:23:33.159Z,26.42
2019-06-20T11:24:33.111Z,26.35
2019-06-20T11:25:33.551Z,26.42
2019-06-20T11:26:33.100Z,26.29
2019-06-20T11:27:33.131Z,26.03
2019-06-20T11:28:33.071Z,26.08
2019-06-20T11:29:33.056Z,26.28
2019-06-20T11:30:46.501Z,26.35
2019-06-20T11:31:34.095Z,26.27
2019-06-20T11:32:33.064Z,26.32
2019-06-20T11:33:33.160Z,26.32
2019-06-20T11:34:33.048Z,26.29
2019-06-20T11:35:33.070Z,26.16
2019-06-20T11:36:33.371Z,26.19
2019-06-20T11:37:32.989Z,25.96
2019-06-20T11:38:32.957Z,26.06
2019-06-20T11:39:32.986Z,26.08
2019-06-20T11:40:35.259Z,26.17
2019-06-20T11:41:32.979Z,26.04
2019-06-20T11:42:32.916Z,26.03
2019-06-20T11:43:34.614Z,26.03
2019-06-20T11:44:35.370Z,26.04
2019-06-20T11:45:35.452Z,25.93
2019-06-20T11:46:35.307Z,25.93
2019-06-20T11:47:34.904Z,25.74
2019-06-20T11:48:34.336Z,25.63
2019-06-20T11:49:34.575Z,25.23
2019-06-20T11:50:34.454Z,25.02
2019-06-20T11:51:34.361Z,24.87
2019-06-20T11:52:36.920Z,24.59
2019-06-20T11:53:35.285Z,24.48
2019-06-20T11:54:34.345Z,24.33
2019-06-20T11:55:32.805Z,24.34
2019-06-20T11:56:32.768Z,24.18
2019-06-20T11:57:32.767Z,24.23
2019-06-20T11:58:32.743Z,24.16
2019-06-20T11:59:32.739Z,24.08
2019-06-20T12:00:32.749Z,23.86
2019-06-20T12:01:33.347Z,23.82
2019-06-20T12:02:32.704Z,23.94
2019-06-20T12:03:32.693Z,23.97
2019-06-20T12:04:32.684Z,24.05
2019-06-20T12:05:32.697Z,23.96
2019-06-20T12:06:32.654Z,24.08
2019-06-20T12:07:32.655Z,24.21
2019-06-20T12:08:32.641Z,24.36
2019-06-20T12:09:32.658Z,24.34
2019-06-20T12:10:32.631Z,24.30
2019-06-20T12:11:32.601Z,24.52
2019-06-20T12:12:32.588Z,24.59
2019-06-20T12:13:32.599Z,24.77
2019-06-20T12:14:32.828Z,24.74
2019-06-20T12:15:32.557Z,24.77
2019-06-20T12:16:32.584Z,24.71
2019-06-20T12:17:32.582Z,24.63
2019-06-20T12:18:32.542Z,24.61
2019-06-20T12:19:32.522Z,24.75
2019-06-20T12:20:32.508Z,24.87
2019-06-20T12:21:32.501Z,24.97
2019-06-20T12:22:32.490Z,25.05
2019-06-20T12:23:32.587Z,25.09
2019-06-20T12:24:32.463Z,24.97
2019-06-20T12:25:32.461Z,25.09
2019-06-20T12:26:32.475Z,25.16
2019-06-20T12:27:32.456Z,25.17
2019-06-20T12:28:32.433Z,25.17
2019-06-20T12:29:32.464Z,25.08
2019-06-20T12:30:32.411Z,24.90
2019-06-20T12:31:32.402Z,24.80
2019-06-20T12:32:32.380Z,24.66
2019-06-20T12:33:32.819Z,24.51
2019-06-20T12:34:32.449Z,24.48
2019-06-20T12:35:32.357Z,24.42
2019-06-20T12:36:32.731Z,24.34
2019-06-20T12:37:32.361Z,24.33
2019-06-20T12:38:32.327Z,24.19
2019-06-20T12:39:32.301Z,24.26
2019-06-20T12:40:32.326Z,24.18
2019-06-20T12:41:32.297Z,24.16
2019-06-20T12:42:32.271Z,24.08
2019-06-20T12:43:32.259Z,24.14
2019-06-20T12:44:32.663Z,24.14
2019-06-20T12:45:32.248Z,24.06
2019-06-20T12:46:32.239Z,23.94
2019-06-20T12:47:32.217Z,23.84
2019-06-20T12:48:32.212Z,23.81
2019-06-20T12:49:32.229Z,23.78
2019-06-20T12:50:32.185Z,23.53
2019-06-20T12:51:32.179Z,23.32
2019-06-20T12:52:32.240Z,23.29